EDDE/ERF METAR and TAF weather

Enter ICAO airport designator
Station Type Date Time Source
EDDE METAR 2020/04/07 03:50 UTC NOAA

EDDE 070350Z 25011KT CAVOK 05/01 Q1028 NOSIG


Station Type Date Time Source
EDDE Decoded METAR 2020/04/07 03:50 UTC NOAA

Erfurt-Bindersleben, Germany (EDDE) 50-59N 010-58E 322M
Apr 06, 2020 - 11:50 PM EDT / 2020.04.07 0350 UTC
Wind: from the WSW (250 degrees) at 13 MPH (11 KT):0
Visibility: greater than 7 mile(s):0
Temperature: 41 F (5 C)
Dew Point: 33 F (1 C)
Relative Humidity: 75%
Pressure (altimeter): 30.36 in. Hg (1028 hPa)
ob: EDDE 070350Z 25011KT CAVOK 05/01 Q1028 NOSIG
cycle: 4

Station Type Date Time Source
EDDE TAF 2020/04/06 18:27 UTC NOAA

TAF TAF EDDE 061700Z 0618/0718 22006KT CAVOK
BECMG 0710/0712 35005KT
BECMG 0714/0716 05005KT

Example: see airport list